Time;durP1;ratioP1;P1;durP2;ratioP2;P2;SDS_P1;SDS_P2;PMS_P1;PMS_P2;Temp;Humidity;BMP_temperature;BMP_pressure;BME280_temperature;BME280_humidity;BME280_pressure;Samples;Min_cycle;Max_cycle;Signal;HPM_P1;HPM_P2
2023/02/18 00:01:44;;;;;;;15.00;8.63;;;;;;;;;;5099986;28;20235;-69
2023/02/18 00:04:12;;;;;;;14.10;9.03;;;;;;;;;;5099907;28;20705;-69
2023/02/18 00:06:40;;;;;;;12.47;8.87;;;;;;;;;;5099842;28;20201;-69
2023/02/18 00:09:08;;;;;;;17.30;9.27;;;;;;;;;;5099946;28;20208;-68
2023/02/18 00:11:38;;;;;;;12.63;8.57;;;;;;;;;;5099687;28;20204;-69
2023/02/18 00:14:07;;;;;;;11.00;8.03;;;;;;;;;;5100131;28;20221;-69
2023/02/18 00:16:35;;;;;;;12.97;9.00;;;;;;;;;;5099568;28;20201;-67
2023/02/18 00:19:04;;;;;;;15.87;9.30;;;;;;;;;;5099656;28;20684;-68
2023/02/18 00:21:32;;;;;;;13.57;9.40;;;;;;;;;;5099552;28;20206;-69
2023/02/18 00:24:00;;;;;;;12.17;8.07;;;;;;;;;;5099113;28;20730;-69
2023/02/18 00:26:28;;;;;;;16.33;9.40;;;;;;;;;;5099285;28;20241;-69
2023/02/18 00:28:58;;;;;;;15.20;8.90;;;;;;;;;;5099345;28;20251;-69
2023/02/18 00:31:27;;;;;;;16.33;9.90;;;;;;;;;;5099708;28;20202;-69
2023/02/18 00:33:56;;;;;;;15.67;9.53;;;;;;;;;;5099394;28;20229;-69
2023/02/18 00:36:25;;;;;;;16.17;10.53;;;;;;;;;;5098922;28;20205;-69
2023/02/18 00:38:53;;;;;;;17.57;10.37;;;;;;;;;;5099545;28;20225;-69
2023/02/18 00:41:22;;;;;;;20.93;12.80;;;;;;;;;;5099391;28;20289;-69
2023/02/18 00:43:50;;;;;;;24.73;12.07;;;;;;;;;;5090877;28;20257;-69
2023/02/18 00:46:20;;;;;;;21.47;11.00;;;;;;;;;;5099062;28;20240;-69
2023/02/18 00:48:48;;;;;;;20.40;11.27;;;;;;;;;;5099132;28;20204;-69
2023/02/18 00:51:16;;;;;;;20.20;10.77;;;;;;;;;;5098921;28;20209;-69
2023/02/18 00:53:44;;;;;;;25.37;12.77;;;;;;;;;;5098978;28;20723;-69
2023/02/18 00:56:12;;;;;;;20.23;12.43;;;;;;;;;;5085564;28;20213;-69
2023/02/18 00:58:40;;;;;;;27.30;12.97;;;;;;;;;;5098729;28;20225;-69
2023/02/18 01:01:09;;;;;;;27.17;12.53;;;;;;;;;;5098775;28;20233;-69
2023/02/18 01:03:39;;;;;;;20.63;12.43;;;;;;;;;;5098894;28;20308;-69
2023/02/18 01:06:08;;;;;;;28.17;11.90;;;;;;;;;;5098921;28;20236;-69
2023/02/18 01:08:36;;;;;;;21.83;12.70;;;;;;;;;;5098714;28;20275;-69
2023/02/18 01:11:05;;;;;;;21.10;12.13;;;;;;;;;;5098635;28;20262;-69
2023/02/18 01:13:33;;;;;;;20.20;11.43;;;;;;;;;;5098351;28;20260;-69
2023/02/18 01:16:01;;;;;;;20.77;12.00;;;;;;;;;;5098670;28;20211;-68
2023/02/18 01:18:30;;;;;;;19.03;11.20;;;;;;;;;;5098302;28;20229;-68
2023/02/18 01:20:59;;;;;;;18.83;11.03;;;;;;;;;;5098323;28;20240;-69
2023/02/18 01:23:27;;;;;;;17.10;10.80;;;;;;;;;;5098501;28;20221;-69
2023/02/18 01:25:57;;;;;;;17.53;10.87;;;;;;;;;;5098138;28;20605;-69
2023/02/18 01:28:25;;;;;;;19.20;11.47;;;;;;;;;;5098348;28;20564;-69
2023/02/18 01:30:53;;;;;;;19.53;10.73;;;;;;;;;;5098611;28;20205;-69
2023/02/18 01:33:21;;;;;;;22.40;10.80;;;;;;;;;;5098369;28;20320;-69
2023/02/18 01:35:49;;;;;;;18.77;11.00;;;;;;;;;;5089847;28;20244;-69
2023/02/18 01:38:19;;;;;;;18.20;10.10;;;;;;;;;;5095948;28;20269;-69
2023/02/18 01:40:50;;;;;;;16.77;9.33;;;;;;;;;;5097842;28;20292;-69
2023/02/18 01:43:18;;;;;;;16.10;9.70;;;;;;;;;;5097885;28;20645;-69
2023/02/18 01:45:51;;;;;;;18.37;9.73;;;;;;;;;;5083785;28;20221;-69
2023/02/18 01:48:21;;;;;;;17.77;9.90;;;;;;;;;;5098134;28;20236;-69
2023/02/18 01:50:51;;;;;;;17.47;11.23;;;;;;;;;;5098311;28;20539;-69
2023/02/18 01:53:21;;;;;;;18.53;9.67;;;;;;;;;;5098183;28;20312;-69
2023/02/18 01:55:49;;;;;;;17.07;10.43;;;;;;;;;;5097868;28;20288;-70
2023/02/18 01:58:18;;;;;;;13.33;9.03;;;;;;;;;;5098123;28;20232;-69
2023/02/18 02:00:46;;;;;;;13.27;8.70;;;;;;;;;;5098108;28;20236;-69
2023/02/18 02:03:14;;;;;;;16.40;9.67;;;;;;;;;;5098092;28;20225;-70
2023/02/18 02:05:42;;;;;;;14.27;8.90;;;;;;;;;;5098024;28;20213;-69
2023/02/18 02:08:10;;;;;;;17.37;10.07;;;;;;;;;;5097836;28;20657;-68
2023/02/18 02:10:43;;;;;;;14.70;9.67;;;;;;;;;;5097892;28;20205;-69
2023/02/18 02:13:15;;;;;;;15.20;8.70;;;;;;;;;;5097917;28;20261;-69
2023/02/18 02:15:45;;;;;;;13.07;8.60;;;;;;;;;;5098076;28;20240;-69
2023/02/18 02:18:19;;;;;;;13.87;8.63;;;;;;;;;;5097563;28;20653;-69
2023/02/18 02:21:11;;;;;;;12.67;8.10;;;;;;;;;;5097499;28;20213;-69
2023/02/18 02:23:54;;;;;;;11.03;8.03;;;;;;;;;;5097708;28;20641;-68
2023/02/18 02:26:55;;;;;;;9.67;7.37;;;;;;;;;;5097575;28;20208;-69
2023/02/18 02:29:38;;;;;;;10.70;7.70;;;;;;;;;;5015464;28;20292;-69
2023/02/18 02:32:20;;;;;;;10.33;7.73;;;;;;;;;;5015695;28;20208;-69
2023/02/18 02:34:53;;;;;;;9.03;7.23;;;;;;;;;;5069467;28;20269;-69
2023/02/18 02:37:26;;;;;;;9.70;7.30;;;;;;;;;;5097658;28;20237;-69
2023/02/18 02:39:59;;;;;;;11.60;7.47;;;;;;;;;;5097488;28;20593;-68
2023/02/18 02:42:34;;;;;;;11.30;7.47;;;;;;;;;;5097045;28;20668;-69
2023/02/18 02:45:05;;;;;;;12.83;8.03;;;;;;;;;;5097485;28;20232;-69
2023/02/18 02:47:37;;;;;;;9.63;7.60;;;;;;;;;;5098141;28;20212;-69
2023/02/18 02:50:09;;;;;;;12.17;8.13;;;;;;;;;;5101347;28;20672;-69
2023/02/18 02:52:39;;;;;;;14.80;8.00;;;;;;;;;;5101254;28;20244;-67
2023/02/18 02:55:09;;;;;;;11.13;8.13;;;;;;;;;;5101595;28;20246;-68
2023/02/18 02:57:49;;;;;;;8.87;7.40;;;;;;;;;;5101115;28;20233;-68
2023/02/18 03:00:18;;;;;;;9.97;7.83;;;;;;;;;;5101380;28;20308;-69
2023/02/18 03:02:53;;;;;;;13.77;7.83;;;;;;;;;;5101089;28;20708;-70
2023/02/18 03:05:27;;;;;;;14.83;7.63;;;;;;;;;;5100913;28;20201;-70
2023/02/18 03:08:00;;;;;;;10.23;7.33;;;;;;;;;;5101409;28;20206;-68
2023/02/18 03:10:38;;;;;;;12.07;7.90;;;;;;;;;;5100971;28;20201;-68
2023/02/18 03:13:09;;;;;;;11.63;8.00;;;;;;;;;;5101165;28;20314;-68
2023/02/18 03:15:39;;;;;;;10.70;7.87;;;;;;;;;;5101242;28;20248;-69
2023/02/18 03:18:08;;;;;;;9.57;7.53;;;;;;;;;;5101057;28;20205;-68
2023/02/18 03:20:40;;;;;;;10.60;7.40;;;;;;;;;;5100965;28;20225;-68
2023/02/18 03:23:10;;;;;;;8.87;7.27;;;;;;;;;;5100933;28;20257;-67
2023/02/18 03:25:40;;;;;;;9.60;7.83;;;;;;;;;;5100729;28;20214;-68
2023/02/18 03:28:09;;;;;;;10.93;8.33;;;;;;;;;;5100770;28;20206;-69
2023/02/18 03:30:40;;;;;;;15.53;9.83;;;;;;;;;;5100948;28;20197;-70
2023/02/18 03:33:11;;;;;;;13.83;10.30;;;;;;;;;;5100443;28;20317;-69
2023/02/18 03:35:41;;;;;;;16.40;11.73;;;;;;;;;;5100648;28;20220;-69
2023/02/18 03:38:12;;;;;;;19.30;12.13;;;;;;;;;;5100273;28;20288;-70
2023/02/18 03:40:40;;;;;;;17.57;11.97;;;;;;;;;;5100437;28;20344;-69
2023/02/18 03:43:08;;;;;;;17.80;12.23;;;;;;;;;;5100168;28;20264;-69
2023/02/18 03:45:36;;;;;;;17.03;11.63;;;;;;;;;;5094181;28;20221;-69
2023/02/18 03:48:05;;;;;;;19.93;11.97;;;;;;;;;;5096170;28;20205;-69
2023/02/18 03:50:33;;;;;;;15.43;10.93;;;;;;;;;;5100580;28;20284;-69
2023/02/18 03:53:02;;;;;;;14.83;11.30;;;;;;;;;;5100374;28;20229;-69
2023/02/18 03:55:30;;;;;;;18.07;10.67;;;;;;;;;;5100146;28;20213;-69
2023/02/18 03:57:58;;;;;;;17.10;10.63;;;;;;;;;;5100094;28;20210;-69
2023/02/18 04:00:26;;;;;;;17.57;11.33;;;;;;;;;;5099067;28;20236;-69
2023/02/18 04:02:54;;;;;;;16.97;10.57;;;;;;;;;;5100128;28;20260;-69
2023/02/18 04:05:22;;;;;;;14.30;10.07;;;;;;;;;;5100090;28;20288;-69
2023/02/18 04:07:50;;;;;;;18.13;11.20;;;;;;;;;;5100081;28;20273;-70
2023/02/18 04:10:21;;;;;;;15.70;11.30;;;;;;;;;;5099887;28;20211;-70
2023/02/18 04:12:49;;;;;;;15.27;11.10;;;;;;;;;;5099909;28;20221;-69
2023/02/18 04:15:17;;;;;;;17.40;10.27;;;;;;;;;;5100148;28;20551;-69
2023/02/18 04:17:45;;;;;;;18.17;11.10;;;;;;;;;;5099683;28;20237;-69
2023/02/18 04:20:13;;;;;;;16.50;10.97;;;;;;;;;;5099474;28;20580;-69
2023/02/18 04:22:41;;;;;;;16.43;11.13;;;;;;;;;;5086298;28;20288;-69
2023/02/18 04:25:09;;;;;;;13.90;10.70;;;;;;;;;;5099492;28;20236;-69
2023/02/18 04:27:38;;;;;;;16.10;10.97;;;;;;;;;;5099423;28;20213;-69
2023/02/18 04:30:07;;;;;;;15.07;11.13;;;;;;;;;;5099673;28;20273;-69
2023/02/18 04:32:36;;;;;;;20.03;11.13;;;;;;;;;;5099332;28;20259;-69
2023/02/18 04:35:04;;;;;;;14.70;10.47;;;;;;;;;;5099155;28;20707;-69
2023/02/18 04:37:32;;;;;;;16.63;10.97;;;;;;;;;;5099030;28;20740;-69
2023/02/18 04:40:00;;;;;;;13.67;10.50;;;;;;;;;;5099465;28;20308;-69
2023/02/18 04:42:28;;;;;;;13.43;10.57;;;;;;;;;;5098778;28;20748;-69
2023/02/18 04:44:57;;;;;;;14.73;11.53;;;;;;;;;;5099500;28;20209;-69
2023/02/18 04:47:25;;;;;;;17.83;12.07;;;;;;;;;;5099035;28;20692;-69
2023/02/18 04:49:53;;;;;;;16.47;10.57;;;;;;;;;;5099281;28;20285;-69
2023/02/18 04:52:21;;;;;;;18.97;11.97;;;;;;;;;;5099050;28;20210;-69
2023/02/18 04:54:49;;;;;;;16.30;10.27;;;;;;;;;;5095339;28;20232;-69
2023/02/18 04:57:17;;;;;;;14.10;10.67;;;;;;;;;;5098426;28;20899;-69
2023/02/18 04:59:45;;;;;;;17.87;11.73;;;;;;;;;;5098923;28;20232;-69
2023/02/18 05:02:15;;;;;;;16.03;11.17;;;;;;;;;;5098578;28;20198;-69
2023/02/18 05:04:43;;;;;;;14.17;10.47;;;;;;;;;;5095101;28;20218;-69
2023/02/18 05:07:11;;;;;;;16.40;11.00;;;;;;;;;;5081529;28;20703;-70
2023/02/18 05:09:39;;;;;;;16.27;10.73;;;;;;;;;;5080527;28;20209;-69
2023/02/18 05:12:07;;;;;;;15.83;10.67;;;;;;;;;;5095341;28;20269;-70
2023/02/18 05:14:35;;;;;;;15.93;10.37;;;;;;;;;;5098406;28;20233;-70
2023/02/18 05:17:03;;;;;;;14.33;10.47;;;;;;;;;;5098561;28;20201;-69
2023/02/18 05:19:32;;;;;;;15.57;11.00;;;;;;;;;;5098568;28;20216;-69
2023/02/18 05:22:00;;;;;;;13.57;10.37;;;;;;;;;;5097893;28;20312;-70
2023/02/18 05:24:28;;;;;;;18.07;10.70;;;;;;;;;;5097951;28;20245;-70
2023/02/18 05:26:56;;;;;;;15.40;11.27;;;;;;;;;;5097805;28;20214;-69
2023/02/18 05:29:24;;;;;;;16.70;11.30;;;;;;;;;;5098465;28;20642;-69
2023/02/18 05:31:52;;;;;;;18.60;11.17;;;;;;;;;;5098610;28;20232;-70
2023/02/18 05:34:20;;;;;;;15.47;10.77;;;;;;;;;;5096920;28;20225;-70
2023/02/18 05:36:50;;;;;;;13.77;10.90;;;;;;;;;;5098415;28;20241;-70
2023/02/18 05:39:18;;;;;;;14.43;10.17;;;;;;;;;;5097507;28;20236;-69
2023/02/18 05:41:46;;;;;;;18.47;11.57;;;;;;;;;;5097354;28;20221;-70
2023/02/18 05:44:32;;;;;;;15.87;10.67;;;;;;;;;;5092122;28;20252;-70
2023/02/18 05:47:01;;;;;;;15.70;10.73;;;;;;;;;;5095938;28;20280;-70
2023/02/18 05:49:29;;;;;;;17.07;10.87;;;;;;;;;;5098184;28;20212;-70
2023/02/18 05:51:59;;;;;;;15.37;10.93;;;;;;;;;;5098094;28;20243;-70
2023/02/18 05:54:27;;;;;;;12.60;10.10;;;;;;;;;;5097886;28;20726;-70
2023/02/18 05:56:55;;;;;;;14.70;10.67;;;;;;;;;;5097673;28;20683;-70
2023/02/18 05:59:23;;;;;;;14.63;10.63;;;;;;;;;;5097928;28;20205;-70
2023/02/18 06:01:51;;;;;;;16.00;10.33;;;;;;;;;;5089366;28;20313;-69
2023/02/18 06:04:19;;;;;;;14.53;10.10;;;;;;;;;;5084520;28;20659;-70
2023/02/18 06:06:48;;;;;;;16.30;10.23;;;;;;;;;;5097657;28;20212;-70
2023/02/18 06:09:17;;;;;;;15.20;10.27;;;;;;;;;;5097769;28;20233;-70
2023/02/18 06:11:45;;;;;;;14.87;10.73;;;;;;;;;;5091664;28;20236;-69
2023/02/18 06:14:13;;;;;;;15.50;10.93;;;;;;;;;;5096304;28;20597;-70
2023/02/18 06:16:41;;;;;;;14.13;9.27;;;;;;;;;;5097564;28;20263;-70
2023/02/18 06:19:09;;;;;;;12.83;9.07;;;;;;;;;;5097327;28;20209;-70
2023/02/18 06:21:37;;;;;;;15.67;10.83;;;;;;;;;;5097574;28;20260;-70
2023/02/18 06:24:06;;;;;;;14.20;10.87;;;;;;;;;;5100844;28;20231;-70
2023/02/18 06:26:35;;;;;;;15.03;10.33;;;;;;;;;;5101262;28;20292;-70
2023/02/18 06:29:03;;;;;;;15.13;10.53;;;;;;;;;;5101254;28;20247;-70
2023/02/18 06:31:31;;;;;;;14.17;9.90;;;;;;;;;;5101822;28;20201;-69
2023/02/18 06:34:00;;;;;;;12.50;9.80;;;;;;;;;;5101381;28;20235;-70
2023/02/18 06:36:28;;;;;;;15.00;10.27;;;;;;;;;;5099761;28;20205;-70
2023/02/18 06:38:58;;;;;;;12.30;10.40;;;;;;;;;;5101417;28;20288;-70
2023/02/18 06:41:26;;;;;;;17.43;11.13;;;;;;;;;;5100833;28;20231;-70
2023/02/18 06:43:55;;;;;;;13.70;10.37;;;;;;;;;;5101472;28;20239;-70
2023/02/18 06:46:23;;;;;;;15.23;10.27;;;;;;;;;;5093013;28;20569;-70
2023/02/18 06:48:51;;;;;;;15.37;10.20;;;;;;;;;;5101133;28;20652;-70
2023/02/18 06:51:19;;;;;;;13.70;10.23;;;;;;;;;;5101121;28;20657;-69
2023/02/18 06:53:47;;;;;;;15.67;10.80;;;;;;;;;;5101269;28;20226;-70
2023/02/18 06:56:15;;;;;;;15.57;10.77;;;;;;;;;;5097550;28;20204;-69
2023/02/18 06:58:43;;;;;;;17.43;10.73;;;;;;;;;;5100949;28;20256;-69
2023/02/18 07:01:12;;;;;;;15.57;11.07;;;;;;;;;;5100822;28;20766;-70
2023/02/18 07:03:40;;;;;;;18.23;10.40;;;;;;;;;;5099347;28;20576;-66
2023/02/18 07:06:08;;;;;;;16.37;9.83;;;;;;;;;;5100680;28;20201;-66
2023/02/18 07:08:37;;;;;;;17.97;11.43;;;;;;;;;;5100674;28;20206;-66
2023/02/18 07:11:06;;;;;;;14.27;10.73;;;;;;;;;;5099639;28;20208;-66
2023/02/18 07:13:34;;;;;;;15.70;11.20;;;;;;;;;;5099647;28;20221;-72
2023/02/18 07:16:02;;;;;;;15.27;10.87;;;;;;;;;;5100516;28;20225;-72
2023/02/18 07:18:32;;;;;;;14.67;10.57;;;;;;;;;;5100219;28;20653;-71
2023/02/18 07:20:59;;;;;;;13.53;10.43;;;;;;;;;;5092422;28;20205;-73
2023/02/18 07:23:28;;;;;;;13.87;10.40;;;;;;;;;;5098720;28;20572;-71
2023/02/18 07:26:02;;;;;;;13.17;9.83;;;;;;;;;;5099178;28;20243;-71
2023/02/18 07:28:30;;;;;;;14.90;10.33;;;;;;;;;;5097513;28;20208;-70
2023/02/18 07:30:58;;;;;;;16.13;10.67;;;;;;;;;;5099726;28;20280;-71
2023/02/18 07:33:26;;;;;;;14.70;10.13;;;;;;;;;;5099103;28;20217;-72
2023/02/18 07:35:57;;;;;;;12.97;10.67;;;;;;;;;;5097794;28;20208;-72
2023/02/18 07:38:25;;;;;;;15.27;9.97;;;;;;;;;;5099233;28;20284;-72
2023/02/18 07:40:53;;;;;;;14.57;10.53;;;;;;;;;;5099608;28;20288;-72
2023/02/18 07:43:21;;;;;;;16.67;10.73;;;;;;;;;;5099619;28;20320;-72
2023/02/18 07:45:49;;;;;;;17.07;10.87;;;;;;;;;;5099795;28;20221;-72
2023/02/18 07:48:18;;;;;;;16.40;11.13;;;;;;;;;;5099751;28;20216;-73
2023/02/18 07:50:46;;;;;;;15.07;10.43;;;;;;;;;;5099641;28;20206;-71
2023/02/18 07:53:16;;;;;;;13.40;10.43;;;;;;;;;;5081268;28;20705;-72
2023/02/18 07:55:50;;;;;;;12.93;11.00;;;;;;;;;;5093187;28;20288;-72
2023/02/18 07:58:19;;;;;;;15.80;11.23;;;;;;;;;;5099192;28;20205;-72
2023/02/18 08:00:48;;;;;;;15.17;10.57;;;;;;;;;;5099028;28;20600;-72
2023/02/18 08:03:16;;;;;;;14.13;11.00;;;;;;;;;;5098698;28;20753;-71
2023/02/18 08:05:44;;;;;;;16.73;10.93;;;;;;;;;;5096710;28;20297;-70
2023/02/18 08:08:13;;;;;;;15.50;11.87;;;;;;;;;;5099193;28;20209;-71
2023/02/18 08:10:43;;;;;;;15.63;10.10;;;;;;;;;;5088277;28;20205;-70
2023/02/18 08:13:11;;;;;;;19.17;11.60;;;;;;;;;;5098778;28;20229;-70
2023/02/18 08:15:39;;;;;;;14.60;10.60;;;;;;;;;;5098577;28;20750;-70
2023/02/18 08:18:08;;;;;;;16.43;10.50;;;;;;;;;;5098453;28;20296;-70
2023/02/18 08:20:37;;;;;;;16.73;10.70;;;;;;;;;;5097000;28;20205;-69
2023/02/18 08:23:05;;;;;;;15.73;10.60;;;;;;;;;;5090696;28;20260;-71
2023/02/18 08:25:33;;;;;;;14.30;11.07;;;;;;;;;;5098043;28;20229;-71
2023/02/18 08:28:03;;;;;;;21.23;12.27;;;;;;;;;;5098451;28;20232;-71
2023/02/18 08:30:31;;;;;;;17.80;11.87;;;;;;;;;;5098347;28;20630;-70
2023/02/18 08:32:59;;;;;;;17.17;11.57;;;;;;;;;;5098331;28;20304;-70
2023/02/18 08:35:27;;;;;;;18.87;11.97;;;;;;;;;;5098313;28;20202;-70
2023/02/18 08:37:55;;;;;;;20.63;12.30;;;;;;;;;;5094495;28;20245;-71
2023/02/18 08:40:25;;;;;;;17.87;12.63;;;;;;;;;;5088331;28;20624;-70
2023/02/18 08:42:53;;;;;;;19.73;12.97;;;;;;;;;;5098155;28;20321;-71
2023/02/18 08:45:22;;;;;;;21.60;12.73;;;;;;;;;;5097765;28;20237;-72
2023/02/18 08:47:50;;;;;;;21.70;13.53;;;;;;;;;;5097089;28;20202;-71
2023/02/18 08:50:38;;;;;;;22.53;12.83;;;;;;;;;;5098026;28;20216;-70
2023/02/18 08:53:06;;;;;;;17.33;11.90;;;;;;;;;;5097836;28;20275;-69
2023/02/18 08:55:36;;;;;;;17.40;12.07;;;;;;;;;;5090910;28;20214;-70
2023/02/18 08:58:05;;;;;;;15.87;11.67;;;;;;;;;;5097793;28;20640;-70
2023/02/18 09:00:34;;;;;;;18.87;13.23;;;;;;;;;;5097518;28;20229;-63
2023/02/18 09:03:02;;;;;;;18.10;12.77;;;;;;;;;;5097326;28;20226;-63
2023/02/18 09:05:30;;;;;;;16.63;12.50;;;;;;;;;;5097997;28;20209;-63
2023/02/18 09:07:58;;;;;;;18.30;12.20;;;;;;;;;;5098002;28;20284;-70
2023/02/18 09:10:26;;;;;;;15.90;11.77;;;;;;;;;;5097901;28;20229;-69
2023/02/18 09:12:54;;;;;;;18.57;12.33;;;;;;;;;;5094767;28;20222;-70
2023/02/18 09:15:22;;;;;;;18.40;11.83;;;;;;;;;;5088603;28;20236;-69
2023/02/18 09:17:52;;;;;;;18.43;12.10;;;;;;;;;;5096766;28;20240;-68
2023/02/18 09:20:20;;;;;;;16.63;11.83;;;;;;;;;;5094780;28;20208;-68
2023/02/18 09:22:48;;;;;;;16.83;11.67;;;;;;;;;;5098015;28;20252;-67
2023/02/18 09:25:16;;;;;;;16.87;11.50;;;;;;;;;;5098086;28;20545;-70
2023/02/18 09:27:44;;;;;;;15.83;12.70;;;;;;;;;;5098052;28;20573;-70
2023/02/18 09:30:12;;;;;;;21.73;13.53;;;;;;;;;;5098379;28;20295;-68
2023/02/18 09:32:40;;;;;;;22.73;13.10;;;;;;;;;;5091684;28;20726;-69
2023/02/18 09:35:10;;;;;;;20.83;13.23;;;;;;;;;;5096139;28;20710;-69
2023/02/18 09:37:38;;;;;;;19.53;13.80;;;;;;;;;;5097808;28;20703;-69
2023/02/18 09:40:07;;;;;;;20.10;13.73;;;;;;;;;;5097411;28;20205;-69
2023/02/18 09:42:35;;;;;;;17.07;11.07;;;;;;;;;;5098052;28;20247;-69
2023/02/18 09:45:04;;;;;;;15.90;12.37;;;;;;;;;;5097947;28;20209;-69
2023/02/18 09:47:34;;;;;;;19.13;13.10;;;;;;;;;;5097834;28;20216;-69
2023/02/18 09:50:05;;;;;;;26.77;13.73;;;;;;;;;;5086860;28;20657;-69
2023/02/18 09:52:37;;;;;;;24.60;13.47;;;;;;;;;;5097769;28;20568;-70
2023/02/18 09:55:16;;;;;;;18.20;12.10;;;;;;;;;;5097650;28;20205;-69
2023/02/18 09:57:49;;;;;;;24.13;13.30;;;;;;;;;;5097472;28;20215;-71
2023/02/18 10:00:20;;;;;;;17.77;11.37;;;;;;;;;;5084716;28;20206;-71
2023/02/18 10:02:53;;;;;;;15.27;12.13;;;;;;;;;;5097528;28;21113;-71
2023/02/18 10:05:21;;;;;;;23.93;12.30;;;;;;;;;;5097354;28;20210;-71
2023/02/18 10:07:53;;;;;;;19.17;12.00;;;;;;;;;;5092142;28;20206;-69
2023/02/18 10:10:25;;;;;;;22.97;12.57;;;;;;;;;;5097795;28;20284;-67
2023/02/18 10:12:53;;;;;;;13.77;10.50;;;;;;;;;;5091356;28;20585;-66
2023/02/18 10:15:23;;;;;;;13.60;10.60;;;;;;;;;;5088807;28;20236;-65
2023/02/18 10:17:52;;;;;;;18.00;12.20;;;;;;;;;;5095309;28;20205;-66
2023/02/18 10:20:23;;;;;;;19.10;11.57;;;;;;;;;;5098399;28;20202;-65
2023/02/18 10:22:53;;;;;;;15.97;12.40;;;;;;;;;;5098376;28;20230;-66
2023/02/18 10:25:22;;;;;;;16.43;11.70;;;;;;;;;;5097741;28;20216;-65
2023/02/18 10:27:52;;;;;;;17.50;11.93;;;;;;;;;;5087135;28;20684;-66
2023/02/18 10:30:24;;;;;;;15.13;11.50;;;;;;;;;;5087549;28;20281;-66
2023/02/18 10:32:55;;;;;;;12.13;9.90;;;;;;;;;;5084498;28;20589;-65
2023/02/18 10:35:24;;;;;;;13.03;10.40;;;;;;;;;;5097040;28;20197;-65
2023/02/18 10:38:03;;;;;;;17.60;11.53;;;;;;;;;;5097195;28;20326;-64
2023/02/18 10:40:47;;;;;;;18.03;11.20;;;;;;;;;;5097183;28;20205;-65
2023/02/18 10:43:19;;;;;;;14.30;10.07;;;;;;;;;;5093694;28;20226;-64
2023/02/18 10:45:49;;;;;;;13.30;9.87;;;;;;;;;;5097242;28;20213;-65
2023/02/18 10:48:31;;;;;;;14.23;9.80;;;;;;;;;;5097654;28;20227;-65
2023/02/18 10:50:59;;;;;;;13.47;10.27;;;;;;;;;;5097356;28;20209;-65
2023/02/18 10:53:33;;;;;;;14.23;9.70;;;;;;;;;;5097094;28;20744;-65
2023/02/18 10:56:01;;;;;;;14.83;10.03;;;;;;;;;;5097095;28;20315;-66
2023/02/18 10:58:32;;;;;;;14.93;9.63;;;;;;;;;;5096950;28;20205;-65
2023/02/18 11:01:03;;;;;;;13.13;8.60;;;;;;;;;;5087390;28;20248;-69
2023/02/18 11:03:42;;;;;;;12.00;9.23;;;;;;;;;;5095055;28;20222;-67
2023/02/18 11:06:20;;;;;;;15.23;8.97;;;;;;;;;;5093171;28;20598;-68
2023/02/18 11:08:50;;;;;;;13.20;9.27;;;;;;;;;;5097754;28;20205;-67
2023/02/18 11:11:23;;;;;;;11.13;8.97;;;;;;;;;;5100351;28;20201;-67
2023/02/18 11:13:53;;;;;;;12.17;9.53;;;;;;;;;;5100864;28;20221;-66
2023/02/18 11:16:22;;;;;;;18.47;10.23;;;;;;;;;;5100510;28;20672;-67
2023/02/18 11:18:50;;;;;;;14.10;10.07;;;;;;;;;;5096004;28;20289;-67
2023/02/18 11:21:25;;;;;;;15.77;10.30;;;;;;;;;;5098996;28;20224;-66
2023/02/18 11:23:55;;;;;;;16.47;11.60;;;;;;;;;;5100519;28;20311;-66
2023/02/18 11:26:26;;;;;;;21.00;11.03;;;;;;;;;;5100075;28;20653;-67
2023/02/18 11:28:57;;;;;;;23.00;11.00;;;;;;;;;;5100673;28;20277;-67
2023/02/18 11:31:30;;;;;;;18.23;11.43;;;;;;;;;;5100656;28;20209;-65
2023/02/18 11:33:58;;;;;;;15.87;10.57;;;;;;;;;;5099859;28;20282;-65
2023/02/18 11:36:29;;;;;;;21.67;12.03;;;;;;;;;;5097934;28;20289;-67
2023/02/18 11:38:59;;;;;;;13.87;10.37;;;;;;;;;;5100247;28;20241;-67
2023/02/18 11:41:32;;;;;;;12.50;8.83;;;;;;;;;;5099980;28;20240;-66
2023/02/18 11:44:01;;;;;;;16.57;9.63;;;;;;;;;;5100321;28;20255;-66
2023/02/18 11:46:29;;;;;;;14.20;9.70;;;;;;;;;;5100346;28;20213;-66
2023/02/18 11:49:10;;;;;;;11.67;8.43;;;;;;;;;;5100360;28;20202;-65
2023/02/18 11:51:40;;;;;;;11.07;8.47;;;;;;;;;;5094940;28;20206;-67
2023/02/18 11:54:23;;;;;;;12.30;7.90;;;;;;;;;;5100148;28;20224;-66
2023/02/18 11:56:54;;;;;;;11.13;7.00;;;;;;;;;;5097669;28;20237;-68
2023/02/18 11:59:22;;;;;;;11.10;7.97;;;;;;;;;;5091586;28;20292;-67
2023/02/18 12:01:51;;;;;;;14.63;8.07;;;;;;;;;;5088201;28;20685;-67
2023/02/18 12:04:21;;;;;;;20.93;8.83;;;;;;;;;;5089388;28;20262;-68
2023/02/18 12:06:52;;;;;;;15.17;8.03;;;;;;;;;;5099779;28;20296;-70
2023/02/18 12:09:26;;;;;;;19.83;12.60;;;;;;;;;;5100108;28;20237;-68
2023/02/18 12:11:56;;;;;;;14.90;11.40;;;;;;;;;;5097829;28;20212;-68
2023/02/18 12:14:26;;;;;;;15.87;11.17;;;;;;;;;;5099629;28;20232;-67
2023/02/18 12:17:15;;;;;;;16.53;11.43;;;;;;;;;;5099529;28;20229;-67
2023/02/18 12:19:51;;;;;;;12.97;9.80;;;;;;;;;;5092795;28;20206;-67
2023/02/18 12:22:22;;;;;;;12.63;9.23;;;;;;;;;;5099273;28;20205;-68
2023/02/18 12:24:59;;;;;;;13.13;8.60;;;;;;;;;;5099109;28;20680;-69
2023/02/18 12:27:29;;;;;;;11.63;7.70;;;;;;;;;;5099705;28;20232;-68
2023/02/18 12:30:20;;;;;;;9.50;7.27;;;;;;;;;;5090611;28;20570;-67
2023/02/18 12:32:50;;;;;;;8.40;6.07;;;;;;;;;;5098907;28;20229;-68
2023/02/18 12:35:39;;;;;;;9.23;5.70;;;;;;;;;;5096370;28;20190;-69
2023/02/18 12:38:17;;;;;;;6.63;5.30;;;;;;;;;;5082135;28;20261;-67
2023/02/18 12:40:55;;;;;;;6.77;5.87;;;;;;;;;;5098599;28;20201;-68
2023/02/18 12:43:31;;;;;;;9.97;6.00;;;;;;;;;;5098495;28;20257;-68
2023/02/18 12:46:13;;;;;;;7.97;5.43;;;;;;;;;;5098884;28;20264;-68
2023/02/18 12:48:50;;;;;;;23.57;6.70;;;;;;;;;;5099258;28;20288;-67
2023/02/18 12:51:23;;;;;;;29.43;6.00;;;;;;;;;;5099035;28;20279;-68
2023/02/18 12:54:02;;;;;;;15.57;5.17;;;;;;;;;;5098974;28;20229;-67
2023/02/18 12:56:51;;;;;;;17.80;4.33;;;;;;;;;;5099007;28;20201;-68
2023/02/18 12:59:31;;;;;;;6.47;3.80;;;;;;;;;;5098732;28;20681;-69
2023/02/18 13:02:03;;;;;;;20.77;5.83;;;;;;;;;;5098706;28;20695;-68
2023/02/18 13:04:39;;;;;;;5.53;3.00;;;;;;;;;;5098876;28;20229;-69
2023/02/18 13:07:22;;;;;;;4.27;2.67;;;;;;;;;;5098779;28;20662;-68
2023/02/18 13:10:00;;;;;;;3.43;1.97;;;;;;;;;;5091650;28;20280;-69
2023/02/18 13:12:30;;;;;;;6.47;2.60;;;;;;;;;;5093683;28;20206;-68
2023/02/18 13:15:03;;;;;;;2.47;2.27;;;;;;;;;;5098943;28;20202;-67
2023/02/18 13:17:34;;;;;;;2.90;1.90;;;;;;;;;;5098842;28;20212;-68
2023/02/18 13:20:05;;;;;;;3.07;2.30;;;;;;;;;;5098753;28;20288;-69
2023/02/18 13:22:33;;;;;;;3.67;2.33;;;;;;;;;;5098334;28;20243;-68
2023/02/18 13:25:01;;;;;;;4.90;2.30;;;;;;;;;;5098197;28;20672;-68
2023/02/18 13:27:32;;;;;;;3.77;2.50;;;;;;;;;;5098823;28;20229;-68
2023/02/18 13:30:07;;;;;;;2.83;2.47;;;;;;;;;;5098436;28;20215;-66
2023/02/18 13:32:38;;;;;;;3.17;2.70;;;;;;;;;;5098431;28;20205;-66
2023/02/18 13:35:09;;;;;;;2.63;2.37;;;;;;;;;;5098450;28;20284;-69
2023/02/18 13:37:46;;;;;;;3.13;2.30;;;;;;;;;;5098280;28;20237;-67
2023/02/18 13:40:17;;;;;;;2.37;2.13;;;;;;;;;;5097894;28;20205;-67
2023/02/18 13:42:45;;;;;;;3.33;2.50;;;;;;;;;;5097953;28;20249;-63
2023/02/18 13:45:31;;;;;;;2.63;2.43;;;;;;;;;;5095119;28;20221;-63
2023/02/18 13:48:01;;;;;;;2.83;2.00;;;;;;;;;;5098242;28;20553;-63
2023/02/18 13:50:30;;;;;;;2.60;2.40;;;;;;;;;;5086916;28;20200;-65
2023/02/18 13:53:00;;;;;;;3.90;2.30;;;;;;;;;;5097915;28;20233;-66
2023/02/18 13:55:35;;;;;;;3.53;2.40;;;;;;;;;;5098054;28;20233;-65
2023/02/18 13:58:03;;;;;;;2.97;1.97;;;;;;;;;;5098123;28;20205;-65
2023/02/18 14:00:35;;;;;;;3.77;2.40;;;;;;;;;;5096656;28;20205;-64
2023/02/18 14:03:20;;;;;;;2.20;1.97;;;;;;;;;;5097997;28;20248;-65
2023/02/18 14:05:48;;;;;;;2.97;2.00;;;;;;;;;;5097956;28;20225;-66
2023/02/18 14:08:29;;;;;;;1.90;1.67;;;;;;;;;;5098135;28;20236;-65
2023/02/18 14:11:12;;;;;;;3.30;1.80;;;;;;;;;;5097588;28;20228;-64
2023/02/18 14:13:41;;;;;;;2.90;1.80;;;;;;;;;;5097450;28;20708;-64
2023/02/18 14:16:10;;;;;;;2.13;1.70;;;;;;;;;;5097895;28;20205;-65
2023/02/18 14:18:59;;;;;;;1.73;1.63;;;;;;;;;;5097972;28;20292;-65
2023/02/18 14:21:37;;;;;;;2.30;1.63;;;;;;;;;;5090086;28;20570;-64
2023/02/18 14:24:07;;;;;;;2.67;1.70;;;;;;;;;;5097689;28;20221;-65
2023/02/18 14:26:40;;;;;;;2.50;2.20;;;;;;;;;;5097505;28;20264;-65
2023/02/18 14:29:11;;;;;;;5.57;1.93;;;;;;;;;;5098086;28;20209;-65
2023/02/18 14:31:45;;;;;;;3.40;1.80;;;;;;;;;;5097863;28;20293;-65
2023/02/18 14:34:28;;;;;;;1.87;1.77;;;;;;;;;;5097614;28;20236;-65
2023/02/18 14:37:01;;;;;;;3.77;1.80;;;;;;;;;;5097316;28;20577;-65
2023/02/18 14:39:35;;;;;;;4.60;1.60;;;;;;;;;;5097858;28;20216;-64
2023/02/18 14:42:05;;;;;;;1.50;1.40;;;;;;;;;;5097758;28;20281;-64
2023/02/18 14:44:51;;;;;;;2.23;1.80;;;;;;;;;;5100149;28;20229;-65